Terminal Aerodrome Forecast
Issued by NWS

Home | Current Version | Previous Version | Graphics & Text | Print | Product List | Glossary On
Versions: 1 2 3 4 5 6 7 8 9 10 11 12 13 14 15 16 17
999
FTUS43 KABR 211738
TAFMBG
TAF
KMBG 211738Z 2118/2218 06009KT P6SM SCT020 OVC070
     FM220500 12015G23KT P6SM OVC050
     FM221000 13018G25KT P6SM OVC025
     FM221200 14018G25KT P6SM OVC010
     FM221700 15019G28KT P6SM BKN025=

USA.gov is the U.S. government's official web portal to all federal, state and local government web resources and services.